Latest Weather Observations for Cape Bruny AWS

IDT60901

Issued at 5:51 am EDT Wednesday 4 March 2015 (issued every 10 minutes, with the page automatically refreshed every 10 minutes)

About weather observations | Map of Hobart area stations | Latest observations for Hobart area | Other Formats
Station Details ID: 094198 Name: CAPE BRUNY (CAPE BRUNY) Lat: -43.49 Lon: 147.14 Height: 59.7 m
Data from the previous 72 hours. | See also: Recent months at Cape Bruny AWS
Date/Time
EDT
Tmp

°C
App
Tmp
°C
Dew
Point
°C
Rel
Hum
%
Delta-T

°C
Wind Press
QNH
hPa
Press
MSL
hPa
Rain
since
9 am
mm
Dir
 
Spd
km/h
Gust
km/h
Spd
kts
Gust
kts
04/05:30am 14.6 8.6 7.2 61 3.6 NW 28 52 15 28 1002.6 1002.5 0.0
04/05:00am 14.7 6.7 7.3 61 3.7 WNW 39 57 21 31 1002.8 1002.7 0.0
04/04:40am 14.5 8.8 6.6 59 3.8 WNW 26 48 14 26 1003.4 1003.3 0.0
04/04:38am 14.5 9.8 7.8 64 3.3 WNW 22 41 12 22 1003.5 1003.4 0.0
04/04:30am 14.3 10.2 6.4 59 3.8 NNW 17 22 9 12 1003.8 1003.7 0.0
04/04:00am 14.1 9.9 5.5 56 4.1 NNW 17 26 9 14 1003.3 1003.2 0.0
04/03:30am 14.4 7.3 5.5 55 4.2 WNW 32 43 17 23 1003.8 1003.7 0.0
04/03:12am 14.4 7.2 5.2 54 4.4 NW 32 52 17 28 1004.1 1004.0 0.0
04/03:00am 14.1 7.0 5.7 57 4.0 NW 32 41 17 22 1004.2 1004.1 0.0
04/02:30am 14.1 6.7 5.2 55 4.2 NW 33 46 18 25 1004.6 1004.5 0.0
04/02:12am 14.0 8.4 5.4 56 4.1 NW 24 44 13 24 1005.1 1005.0 0.0
04/02:00am 13.1 9.8 6.2 63 3.3 N 13 17 7 9 1005.7 1005.6 0.0
04/01:30am 13.1 8.9 5.5 60 3.6 NNW 17 26 9 14 1006.3 1006.2 0.0
04/01:00am 12.9 9.5 5.8 62 3.4 NNW 13 22 7 12 1007.0 1006.9 0.0
04/12:30am 13.4 9.3 6.0 61 3.5 WNW 17 28 9 15 1007.8 1007.7 0.0
04/12:00am 13.9 7.9 5.3 56 4.1 NW 26 35 14 19 1008.3 1008.2 0.0
 
Date/Time
EDT
Tmp

°C
App
Tmp
°C
Dew
Point
°C
Rel
Hum
%
Delta-T

°C
Wind Press
QNH
hPa
Press
MSL
hPa
Rain
since
9 am
mm
Dir
 
Spd
km/h
Gust
km/h
Spd
kts
Gust
kts
03/11:30pm 13.6 7.8 4.5 54 4.2 NW 24 32 13 17 1008.6 1008.5 0.0
03/11:00pm 13.8 5.5 4.1 52 4.5 NW 37 52 20 28 1008.4 1008.3 0.0
03/10:45pm 14.0 6.5 3.2 48 4.9 NW 32 50 17 27 1008.8 1008.7 0.0
03/10:30pm 13.9 7.0 2.8 47 4.9 NW 28 41 15 22 1009.1 1009.0 0.0
03/10:06pm 14.2 7.2 4.2 51 4.6 WNW 30 48 16 26 1010.2 1010.1 0.0
03/10:00pm 14.1 8.0 4.7 53 4.4 NW 26 39 14 21 1010.2 1010.1 0.0
03/09:30pm 14.7 7.7 4.1 49 4.9 NW 30 41 16 22 1010.3 1010.2 0.0
03/09:00pm 14.6 8.9 2.8 45 5.3 NW 22 33 12 18 1010.3 1010.2 0.0
03/08:30pm 14.1 9.3 4.4 52 4.5 NNW 19 32 10 17 1010.2 1010.1 0.0
03/08:00pm 15.2 8.4 4.9 50 4.9 NW 30 48 16 26 1009.8 1009.7 0.0
03/07:58pm 15.2 8.3 4.6 49 5.0 WNW 30 48 16 26 1009.8 1009.7 0.0
03/07:30pm 15.4 7.1 6.1 54 4.5 WNW 39 48 21 26 1009.5 1009.4 0.0
03/07:00pm 16.1 8.9 4.8 47 5.4 WNW 32 48 17 26 1010.0 1009.9 0.0
03/06:35pm 17.1 10.2 4.4 43 6.0 WNW 30 48 16 26 1010.2 1010.1 0.0
03/06:30pm 17.4 10.1 4.7 43 6.1 WNW 32 48 17 26 1010.2 1010.1 0.0
03/06:09pm 17.6 10.8 3.1 38 6.7 WNW 28 46 15 25 1010.1 1010.0 0.0
03/06:00pm 17.9 10.7 3.0 37 6.9 WNW 30 39 16 21 1010.1 1010.0 0.0
03/05:30pm 18.2 10.0 2.5 35 7.2 WNW 35 54 19 29 1010.2 1010.1 0.0
03/05:27pm 18.2 10.0 2.9 36 7.1 WNW 35 54 19 29 1010.2 1010.1 0.0
03/05:11pm 18.8 11.9 2.6 34 7.5 WNW 28 43 15 23 1010.4 1010.3 0.0
03/05:00pm 17.9 15.0 4.5 41 6.4 WNW 9 24 5 13 1010.6 1010.5 0.0
03/04:30pm 17.4 14.0 5.7 46 5.7 S 13 17 7 9 1011.1 1011.0 0.0
03/04:00pm 16.9 12.9 4.9 45 5.7 S 15 20 8 11 1011.4 1011.3 0.0
03/03:30pm 16.7 13.0 4.4 44 5.8 S 13 19 7 10 1011.7 1011.6 0.0
03/03:00pm 17.5 13.8 6.1 47 5.6 S 15 22 8 12 1012.2 1012.2 0.0
03/02:30pm 15.4 11.4 5.0 50 4.9 SSW 15 20 8 11 1012.4 1012.4 0.0
03/02:00pm 17.3 13.2 4.3 42 6.1 S 15 20 8 11 1012.7 1012.7 0.0
03/01:30pm 18.3 15.2 3.4 37 7.0 WNW 9 17 5 9 1013.0 1013.0 0.0
03/01:00pm 17.2 13.8 2.0 36 6.8 W 9 15 5 8 1013.4 1013.4 0.0
03/12:30pm 17.6 13.4 3.9 40 6.4 W 15 19 8 10 1013.9 1013.9 0.0
03/12:00pm 15.5 11.5 2.7 42 5.8 W 13 15 7 8 1014.3 1014.3 0.0
03/11:30am 16.1 11.6 2.2 39 6.2 W 15 20 8 11 1014.5 1014.5 0.0
03/11:00am 15.5 11.8 4.2 47 5.3 W 13 20 7 11 1014.7 1014.7 0.0
03/10:30am 16.0 11.7 3.4 43 5.8 WNW 15 19 8 10 1014.5 1014.5 0.0
03/10:00am 14.1 9.1 3.8 50 4.7 W 19 26 10 14 1014.3 1014.3 0.0
03/09:30am 14.2 9.6 3.7 49 4.8 W 17 20 9 11 1014.3 1014.3 0.0
03/09:00am 13.3 6.9 3.1 50 4.5 WNW 26 32 14 17 1014.0 1014.0 0.0
03/08:30am 13.2 5.5 3.6 52 4.3 W 33 43 18 23 1013.9 1013.9 0.0
03/08:00am 12.8 4.8 3.7 54 4.1 W 35 46 19 25 1013.5 1013.5 0.0
03/07:30am 12.6 3.8 5.5 62 3.3 WSW 41 50 22 27 1013.2 1013.2 0.0
03/07:00am 12.7 5.7 6.7 67 2.9 WSW 33 46 18 25 1012.7 1012.7 0.0
03/06:30am 12.8 5.5 7.0 68 2.8 WSW 35 48 19 26 1012.3 1012.3 0.0
03/06:00am 13.1 6.6 6.7 65 3.1 W 30 41 16 22 1011.8 1011.8 0.0
03/05:30am 13.1 6.1 6.9 66 3.0 WSW 33 43 18 23 1011.6 1011.5 0.0
03/05:00am 13.0 6.2 7.0 67 2.9 WSW 32 41 17 22 1011.4 1011.3 0.0
03/04:30am 12.5 4.5 7.4 71 2.5 W 39 50 21 27 1011.1 1011.0 0.0
03/04:00am 12.9 5.1 6.7 66 3.0 W 37 54 20 29 1011.1 1011.0 0.0
03/03:44am 12.9 4.0 7.8 71 2.5 W 44 63 24 34 1011.0 1010.9 0.0
03/03:30am 12.9 4.3 8.2 73 2.3 WSW 43 57 23 31 1010.9 1010.8 0.0
03/03:00am 12.4 4.3 8.5 77 1.9 WSW 41 61 22 33 1011.0 1010.9 0.0
03/02:56am 12.4 3.8 8.3 76 2.0 WSW 43 61 23 33 1011.0 1010.9 0.0
03/02:30am 12.7 6.5 9.2 79 1.8 WSW 32 46 17 25 1011.0 1010.9 0.0
03/02:00am 13.6 6.5 8.2 70 2.7 W 35 46 19 25 1010.9 1010.8 0.0
03/01:54am 15.2 10.4 8.7 65 3.3 WNW 24 46 13 25 1010.8 1010.7 0.0
03/01:30am 14.6 11.4 6.9 60 3.8 NNW 13 22 7 12 1010.6 1010.5 0.0
03/01:00am 14.6 10.1 6.2 57 4.1 N 19 26 10 14 1010.5 1010.4 0.0
03/12:30am 14.3 10.2 6.2 58 3.9 N 17 28 9 15 1010.5 1010.4 0.0
03/12:00am 14.3 9.5 5.7 56 4.1 NNW 20 30 11 16 1010.4 1010.3 0.0
 
Date/Time
EDT
Tmp

°C
App
Tmp
°C
Dew
Point
°C
Rel
Hum
%
Delta-T

°C
Wind Press
QNH
hPa
Press
MSL
hPa
Rain
since
9 am
mm
Dir
 
Spd
km/h
Gust
km/h
Spd
kts
Gust
kts
02/11:30pm 14.5 10.1 5.0 53 4.5 NNW 17 26 9 14 1011.0 1010.9 0.0
02/11:00pm 14.6 9.7 4.3 50 4.8 NW 19 28 10 15 1011.3 1011.2 0.0
02/10:30pm 14.9 7.4 4.3 49 4.9 WNW 33 46 18 25 1011.3 1011.2 0.0
02/10:00pm 14.9 5.4 4.9 51 4.7 WNW 44 56 24 30 1011.4 1011.3 0.0
02/09:51pm 15.0 8.0 6.0 55 4.3 WNW 32 48 17 26 1011.7 1011.6 0.0
02/09:30pm 14.6 9.5 7.6 63 3.5 W 24 30 13 16 1011.8 1011.8 0.0
02/09:00pm 14.0 9.8 8.2 68 2.9 WNW 20 35 11 19 1011.6 1011.5 0.0
02/08:30pm 13.1 12.7 8.2 72 2.4 CALM 0 0 0 0 1011.3 1011.2 0.0
02/08:00pm 13.1 11.3 8.0 71 2.5 SSE 7 9 4 5 1010.9 1010.8 0.0
02/07:30pm 13.9 11.3 7.9 67 3.0 SSE 11 15 6 8 1010.8 1010.7 0.0
02/07:00pm 14.4 11.4 7.9 65 3.2 S 13 20 7 11 1010.6 1010.5 0.0
02/06:30pm 14.6 10.4 7.4 62 3.6 S 19 30 10 16 1010.9 1010.8 0.0
02/06:00pm 15.7 12.4 8.2 61 3.8 S 15 20 8 11 1010.6 1010.5 0.0
02/05:30pm 15.6 12.1 8.6 63 3.6 S 17 20 9 11 1010.8 1010.7 0.0
02/05:00pm 16.5 13.1 9.0 61 3.9 SSE 17 22 9 12 1011.2 1011.1 0.0
02/04:30pm 15.6 11.6 8.4 62 3.7 S 19 28 10 15 1011.3 1011.2 0.0
02/04:00pm 15.8 12.1 7.8 59 4.0 SSW 17 24 9 13 1011.8 1011.8 0.0
02/03:30pm 16.7 13.7 7.6 55 4.6 S 13 17 7 9 1012.4 1012.4 0.0
02/03:00pm 17.1 14.0 7.2 52 5.0 SSE 13 17 7 9 1012.9 1012.9 0.0
02/02:30pm 18.6 14.9 6.1 44 6.2 NE 15 20 8 11 1013.3 1013.3 0.0
02/02:00pm 17.4 13.2 4.0 41 6.3 NE 15 24 8 13 1013.7 1013.7 0.0
02/01:30pm 17.7 13.4 5.3 44 6.0 NNE 17 28 9 15 1014.3 1014.3 0.0
02/01:00pm 16.7 12.5 5.6 48 5.4 NE 17 22 9 12 1014.9 1014.9 0.0
02/12:30pm 15.4 11.4 5.0 50 4.9 NNE 15 20 8 11 1015.6 1015.6 0.0
02/12:00pm 14.7 10.5 3.8 48 5.0 N 15 20 8 11 1016.6 1016.6 0.0
02/11:30am 14.7 10.7 2.6 44 5.4 NNE 13 19 7 10 1017.0 1017.0 0.0
02/11:00am 14.8 10.6 3.9 48 5.0 NE 15 22 8 12 1017.5 1017.5 0.0
02/10:30am 13.4 8.9 4.0 53 4.3 NNE 17 24 9 13 1017.5 1017.5 0.0
02/10:00am 13.6 9.5 6.0 60 3.6 NNE 17 26 9 14 1017.7 1017.7 0.0
02/09:30am 12.2 7.9 5.1 62 3.3 NNE 17 22 9 12 1017.8 1017.8 0.0
02/09:00am 11.5 7.2 5.2 65 2.9 NNE 17 22 9 12 1018.0 1018.0 0.2
02/08:30am 11.1 6.9 5.6 69 2.5 N 17 22 9 12 1018.1 1018.1 0.2
02/08:00am 10.4 6.5 5.4 71 2.3 NNE 15 20 8 11 1018.0 1018.0 0.2
02/07:30am 8.7 4.4 5.1 78 1.6 N 17 20 9 11 1017.9 1017.9 0.2
02/07:00am 7.7 2.8 3.9 77 1.6 N 19 20 10 11 1017.7 1017.7 0.2
02/06:30am 8.2 3.4 2.7 68 2.3 NNW 17 19 9 10 1017.6 1017.6 0.2
02/06:00am 8.9 4.2 3.1 67 2.5 NNW 17 20 9 11 1017.6 1017.6 0.2
02/05:30am 9.3 4.2 3.3 66 2.6 NW 19 20 10 11 1017.4 1017.4 0.2
02/05:00am 9.7 4.6 3.0 63 2.9 NW 19 24 10 13 1017.5 1017.5 0.2
02/04:30am 9.4 4.6 2.7 63 2.9 NNW 17 22 9 12 1017.4 1017.4 0.2
02/04:00am 10.5 4.1 3.3 61 3.1 NW 26 32 14 17 1017.4 1017.4 0.2
02/03:30am 11.1 4.3 2.9 57 3.6 NW 28 33 15 18 1017.4 1017.4 0.2
02/03:00am 11.1 5.5 3.4 59 3.4 NW 22 28 12 15 1017.3 1017.3 0.2
02/02:30am 11.0 6.0 3.8 61 3.2 NW 19 28 10 15 1017.2 1017.2 0.2
02/02:00am 11.1 6.0 3.9 61 3.2 WNW 20 30 11 16 1017.1 1017.1 0.2
02/01:30am 11.1 5.5 3.6 60 3.3 NW 22 30 12 16 1017.3 1017.3 0.2
02/01:00am 11.2 6.0 3.3 58 3.5 WNW 20 28 11 15 1017.2 1017.2 0.2
02/12:30am 11.3 5.7 3.6 59 3.4 WNW 22 30 12 16 1017.1 1017.1 0.2
02/12:00am 11.3 5.6 3.1 57 3.6 W 22 30 12 16 1017.0 1017.0 0.2
 
Date/Time
EDT
Tmp

°C
App
Tmp
°C
Dew
Point
°C
Rel
Hum
%
Delta-T

°C
Wind Press
QNH
hPa
Press
MSL
hPa
Rain
since
9 am
mm
Dir
 
Spd
km/h
Gust
km/h
Spd
kts
Gust
kts
01/11:30pm 11.2 4.8 3.3 58 3.5 W 26 35 14 19 1017.0 1017.0 0.2
01/11:00pm 11.5 5.7 4.3 61 3.2 W 24 30 13 16 1017.2 1017.2 0.2
01/10:30pm 11.7 4.8 4.4 61 3.3 W 30 39 16 21 1017.2 1017.2 0.2
01/10:00pm 11.8 5.3 4.5 61 3.3 W 28 37 15 20 1017.0 1017.0 0.2
01/09:30pm 11.9 4.4 4.6 61 3.3 WSW 33 46 18 25 1016.7 1016.7 0.2
01/09:00pm 12.0 3.8 4.5 60 3.4 WSW 37 48 20 26 1016.2 1016.2 0.2
01/08:30pm 12.0 2.7 5.0 62 3.2 WSW 43 52 23 28 1015.9 1015.9 0.2
01/08:00pm 12.1 2.7 5.3 63 3.1 WSW 44 59 24 32 1015.3 1015.3 0.2
01/07:30pm 12.1 2.9 5.3 63 3.2 WSW 43 56 23 30 1014.8 1014.8 0.2
01/07:00pm 12.6 3.6 6.4 66 3.0 WSW 43 54 23 29 1014.4 1014.4 0.2
01/06:30pm 13.2 4.3 7.0 66 3.0 WSW 43 54 23 29 1013.8 1013.8 0.2
01/06:00pm 13.8 5.9 7.8 67 3.0 WSW 39 52 21 28 1013.4 1013.4 0.2
01/05:30pm 13.5 5.9 7.7 68 2.9 WSW 37 54 20 29 1013.0 1013.0 0.2
01/05:27pm 14.1 6.9 7.6 65 3.2 WSW 35 54 19 29 1013.0 1013.0 0.2
01/05:00pm 15.3 7.7 9.0 66 3.2 WSW 39 52 21 28 1012.5 1012.5 0.2
01/04:32pm 12.8 5.3 8.1 73 2.3 WSW 37 57 20 31 1012.2 1012.2 0.2
01/04:30pm 12.8 5.4 8.5 75 2.1 WSW 37 48 20 26 1012.2 1012.2 0.2
01/04:00pm 15.4 7.0 9.1 66 3.2 WSW 43 57 23 31 1011.9 1011.9 0.2
01/03:30pm 13.7 6.0 10.3 80 1.8 WSW 41 56 22 30 1011.6 1011.5 0.2
01/03:00pm 15.0 6.4 8.9 67 3.1 WSW 44 59 24 32 1011.2 1011.1 0.2
01/02:41pm 16.0 7.8 9.7 66 3.3 WSW 43 61 23 33 1010.8 1010.7 0.2
01/02:30pm 14.5 5.7 8.0 65 3.2 WSW 44 57 24 31 1010.7 1010.6 0.2
01/02:08pm 14.8 6.3 8.7 67 3.1 WSW 43 61 23 33 1010.2 1010.1 0.2
01/02:00pm 15.5 7.0 8.7 64 3.5 WSW 43 56 23 30 1010.0 1009.9 0.2
01/01:30pm 16.2 8.2 8.9 62 3.8 WSW 41 59 22 32 1009.7 1009.6 0.2
01/01:00pm 15.9 8.0 9.3 65 3.4 WSW 41 54 22 29 1009.4 1009.3 0.2
01/12:30pm 15.7 7.5 9.6 67 3.2 WSW 43 54 23 29 1009.0 1008.9 0.2
01/12:00pm 13.6 5.4 9.8 78 2.0 WSW 43 57 23 31 1008.6 1008.5 0.2
01/11:34am 14.3 6.8 9.3 72 2.6 WSW 39 57 21 31 1008.3 1008.2 0.0
01/11:30am 14.8 7.3 9.6 71 2.7 WSW 39 50 21 27 1008.2 1008.1 0.0
01/11:08am 14.8 6.7 8.5 66 3.2 WSW 41 63 22 34 1007.7 1007.6 0.0
01/11:00am 14.9 6.3 8.2 64 3.4 WSW 43 54 23 29 1007.6 1007.5 0.0
01/10:46am 15.2 6.5 8.4 64 3.4 WSW 44 63 24 34 1007.3 1007.2 0.0
01/10:30am 15.3 6.3 9.0 66 3.2 WSW 46 59 25 32 1007.1 1007.0 0.0
01/10:01am 13.6 4.2 8.7 72 2.5 WSW 48 67 26 36 1006.3 1006.2 0.0
01/10:00am 13.6 4.3 9.1 74 2.3 WSW 48 67 26 36 1006.3 1006.2 0.0
01/09:57am 13.6 4.5 9.8 78 2.0 WSW 48 67 26 36 1006.4 1006.3 0.0
01/09:53am 13.7 4.0 9.0 73 2.4 WSW 50 67 27 36 1006.1 1006.0 0.0
01/09:37am 13.7 6.1 9.2 74 2.3 W 39 57 21 31 1005.8 1005.7 0.0
01/09:30am 14.4 5.6 9.4 72 2.6 WSW 46 57 25 31 1005.7 1005.6 0.0
01/09:00am 13.9 4.3 9.3 74 2.4 WSW 50 63 27 34 1005.2 1005.1 5.2
01/08:30am 13.4 3.6 8.5 72 2.5 WSW 50 61 27 33 1004.5 1004.4 5.2
01/08:09am 12.9 3.4 9.7 81 1.6 WSW 50 69 27 37 1004.1 1004.0 5.2
01/08:00am 12.3 3.9 9.7 84 1.3 WSW 44 59 24 32 1004.0 1003.9 5.0
01/07:47am 12.2 3.4 9.4 83 1.4 W 46 65 25 35 1003.7 1003.6 5.0
01/07:30am 12.8 3.1 8.9 77 2.0 WSW 50 67 27 36 1003.2 1003.1 5.0
01/07:23am 12.4 4.1 9.4 82 1.5 W 43 63 23 34 1003.1 1003.0 5.0
01/07:00am 12.1 4.4 10.0 87 1.1 W 41 56 22 30 1002.7 1002.6 5.0
01/06:31am 12.3 4.0 10.0 86 1.2 W 44 65 24 35 1002.1 1002.0 5.0
01/06:30am 12.5 4.2 10.2 86 1.2 W 44 61 24 33 1002.0 1001.9 5.0
01/06:07am 12.6 3.8 9.6 82 1.5 W 46 65 25 35 1001.1 1001.0 4.8
01/06:00am 12.8 3.8 10.2 84 1.4 W 48 63 26 34 1001.0 1000.9 4.8

Latest Capital City Observations: Canberra | Sydney | Melbourne | Brisbane | Adelaide | Perth | Hobart | Darwin

Other Formats:

Comma delimited format used in spreadsheet applications
http://www.bom.gov.au/fwo/IDT60901/IDT60901.95967.axf

JavaScript Object Notation format (JSON) in row-major order
http://www.bom.gov.au/fwo/IDT60901/IDT60901.95967.json